ENKB/KSU METAR and TAF weather

Enter ICAO airport designator
Station Type Date Time Source
ENKB METAR 2018/01/19 22:50 UTC NOAA

ENKB 192250Z AUTO 10005KT 050V170 9999 NCD M01/M07 Q0996 RMK WIND 745FT 14015KT


Station Type Date Time Source
ENKB Decoded METAR 2018/01/19 22:50 UTC NOAA

Kristiansund / Kvernberget, Norway (ENKB) 63-07N 007-50E 62M
Jan 19, 2018 - 05:50 PM EST / 2018.01.19 2250 UTC
Wind: from the E (100 degrees) at 6 MPH (5 KT) (direction variable):0
Visibility: greater than 7 mile(s):0
Temperature: 30 F (-1 C)
Windchill: 23 F (-5 C):1
Dew Point: 19 F (-7 C)
Relative Humidity: 63%
Pressure (altimeter): 29.41 in. Hg (0996 hPa)
ob: ENKB 192250Z AUTO 10005KT 050V170 9999 NCD M01/M07 Q0996 RMK WIND 745FT 14015KT
cycle: 23

Station Type Date Time Source
ENKB TAF 2010/02/05 07:50 UTC NOAA

METAR ENKB 050750Z 15011KT 110V200 9999 SCT055 BKN070 03/M05 Q1007


Example: see airport list